LIMJ Airport Information

Runway Information
Runway 10 Length 9564 ft width 148 ft
Elevation 9 ft Threshold 0 ft Heading 105
Runway 28 Length 9564 ft Width 148 ft
Elevation 12 ft Threshold 528 ft Heading 285
Airport Frequencies
Type APP Name APP Frequency 119.6 MHZ
Type ATIS Name ATIS Frequency 122.825 MHZ
Type TWR Name TWR Frequency 118.6 MHZ
Airport Navaids
Type VOR-DME Name Genova Frequency 112800 KHZ
Type NDB Name Genova Frequency 318 KHZ
Type VOR-DME Name Genova Sestri Frequency 108600 KHZ
Airport Weather Information & NOTAM
ADDS - METARS form results

(0618 UTC 19 August 2018)
 
METAR text: LIMJ 190550Z 05010KT 020V080 CAVOK 26/17 Q1017
Conditions at: LIMJ (GENOVA/SESTRI , IT) observed 0550 UTC 19 August 2018
Temperature: 26.0°C (79°F)
Dewpoint: 17.0°C (63°F) [RH = 58%]
Pressure (altimeter): 30.03 inches Hg (1017.0 mb)
Winds: from the NE (50 degrees) at 12 MPH (10 knots; 5.2 m/s)
Visibility: 6 or more miles (10+ km)
Ceiling: ceiling and visibility are OK
Clouds: unknown
Weather: no significant weather observed at this time

METAR text: LIMJ 190520Z 05009KT 020V080 CAVOK 26/16 Q1017
Conditions at: LIMJ (GENOVA/SESTRI , IT) observed 0520 UTC 19 August 2018
Temperature: 26.0°C (79°F)
Dewpoint: 16.0°C (61°F) [RH = 54%]
Pressure (altimeter): 30.03 inches Hg (1017.0 mb)
Winds: from the NE (50 degrees) at 10 MPH (9 knots; 4.7 m/s)
Visibility: 6 or more miles (10+ km)
Ceiling: ceiling and visibility are OK
Clouds: unknown
Weather: no significant weather observed at this time